Time;durP1;ratioP1;P1;durP2;ratioP2;P2;SDS_P1;SDS_P2;PMS_P1;PMS_P2;Temp;Humidity;BMP_temperature;BMP_pressure;BME280_temperature;BME280_humidity;BME280_pressure;Samples;Min_cycle;Max_cycle;Signal;HPM_P1;HPM_P2
2021/08/01 00:01:03;;;;;;;31.52;16.00;;;;;;;25.00;65.18;97989.13;5073246;28;20044;-91
2021/08/01 00:03:30;;;;;;;25.20;15.13;;;;;;;24.93;65.56;97981.72;5076391;28;20397;-90
2021/08/01 00:05:56;;;;;;;24.77;14.02;;;;;;;24.99;65.33;98001.00;5076665;28;20502;-90
2021/08/01 00:08:23;;;;;;;30.25;14.73;;;;;;;24.91;65.38;97962.84;5076394;28;20064;-90
2021/08/01 00:10:49;;;;;;;26.40;15.10;;;;;;;25.08;65.53;97980.19;5075416;28;20898;-89
2021/08/01 00:13:16;;;;;;;25.35;14.18;;;;;;;24.92;65.98;97974.59;5077123;28;20072;-92
2021/08/01 00:15:42;;;;;;;30.77;14.98;;;;;;;24.96;65.78;97986.84;5072699;28;20044;-89
2021/08/01 00:18:21;;;;;;;22.92;14.65;;;;;;;24.87;66.13;97995.91;5076914;28;20048;-90
2021/08/01 00:20:47;;;;;;;21.00;14.25;;;;;;;24.85;66.68;98006.94;5077038;28;20421;-90
2021/08/01 00:23:13;;;;;;;31.92;15.35;;;;;;;24.67;66.58;97985.13;5075716;28;20032;-90
2021/08/01 00:25:39;;;;;;;25.55;14.50;;;;;;;24.74;66.65;98005.28;5074692;28;20449;-91
2021/08/01 00:28:05;;;;;;;27.23;15.02;;;;;;;24.58;66.94;97988.75;5074813;28;20037;-90
2021/08/01 00:30:32;;;;;;;26.60;15.63;;;;;;;24.71;66.57;98000.16;5073718;28;20032;-93
2021/08/01 00:32:59;;;;;;;24.67;14.75;;;;;;;24.62;66.16;97984.75;5076369;28;20079;-91
2021/08/01 00:35:25;;;;;;;27.52;13.98;;;;;;;24.83;65.09;98008.09;5076169;28;20087;-91
2021/08/01 00:37:51;;;;;;;25.10;13.80;;;;;;;24.83;63.97;98010.81;5076103;28;20394;-91
2021/08/01 00:40:19;;;;;;;24.58;12.95;;;;;;;24.78;63.49;98001.25;5077078;28;20025;-92
2021/08/01 00:42:45;;;;;;;21.83;13.80;;;;;;;24.85;63.63;98025.97;5076089;28;20032;-90
2021/08/01 00:45:12;;;;;;;28.35;13.73;;;;;;;24.87;63.29;98031.28;5072289;28;20063;-89
2021/08/01 00:47:41;;;;;;;23.63;13.35;;;;;;;24.88;62.62;98024.84;5075299;28;20051;-90
2021/08/01 00:50:08;;;;;;;24.95;12.52;;;;;;;24.87;62.95;98021.25;5071892;28;20037;-89
2021/08/01 00:52:36;;;;;;;25.10;12.75;;;;;;;24.85;62.23;98033.28;5075889;28;20514;-90
2021/08/01 00:55:03;;;;;;;23.88;13.77;;;;;;;24.89;61.48;98043.72;5074009;28;20040;-89
2021/08/01 00:57:28;;;;;;;30.92;13.13;;;;;;;24.84;61.11;98045.19;5073722;28;20501;-90
2021/08/01 00:59:54;;;;;;;26.05;13.18;;;;;;;24.85;60.87;98052.31;5073717;28;20041;-90
2021/08/01 01:02:29;;;;;;;31.65;13.23;;;;;;;24.86;61.18;98051.34;5072469;28;20047;-90
2021/08/01 01:05:02;;;;;;;23.98;13.32;;;;;;;24.80;61.41;98050.91;5072835;28;20032;-90
2021/08/01 01:07:34;;;;;;;22.10;12.07;;;;;;;24.69;61.29;98028.50;5073347;28;20561;-90
2021/08/01 01:10:05;;;;;;;21.25;12.38;;;;;;;24.74;60.98;98042.50;5072506;28;20048;-91
2021/08/01 01:12:36;;;;;;;22.35;12.35;;;;;;;24.63;61.08;98021.78;5073115;28;20061;-90
2021/08/01 01:15:11;;;;;;;25.45;12.35;;;;;;;24.67;60.89;98027.78;5071463;28;20131;-89
2021/08/01 01:17:39;;;;;;;21.50;12.38;;;;;;;24.63;60.77;98038.09;5074412;28;20040;-89
2021/08/01 01:20:18;;;;;;;20.80;12.15;;;;;;;24.60;60.29;98031.09;5074914;28;20115;-89
2021/08/01 01:22:51;;;;;;;23.98;11.50;;;;;;;24.61;60.39;98034.66;5072094;28;20044;-89
2021/08/01 01:25:23;;;;;;;24.13;12.15;;;;;;;24.56;60.61;98043.25;5072859;28;20032;-89
2021/08/01 01:28:01;;;;;;;20.38;10.80;;;;;;;24.64;59.27;98044.41;5073935;28;20086;-90
2021/08/01 01:30:30;;;;;;;24.60;11.90;;;;;;;24.64;59.08;98036.25;5068432;28;20090;-89
2021/08/01 01:33:01;;;;;;;;;;;;;;;24.57;59.74;98030.53;5073465;28;20059;-90
2021/08/01 01:35:36;;;;;;;24.00;12.00;;;;;;;24.46;60.15;98034.25;5072485;28;19982;-90
2021/08/01 01:38:05;;;;;;;18.05;11.35;;;;;;;24.32;60.28;98040.16;5071508;28;20123;-91
2021/08/01 01:40:31;;;;;;;23.70;12.82;;;;;;;24.08;60.60;98027.91;5072682;28;20039;-89
2021/08/01 01:42:58;;;;;;;22.77;11.50;;;;;;;24.10;60.85;98044.91;5072845;28;20554;-88
2021/08/01 01:45:26;;;;;;;21.90;11.60;;;;;;;23.97;61.05;98034.34;5068379;28;20418;-90
2021/08/01 01:47:52;;;;;;;25.33;12.00;;;;;;;23.96;61.12;98048.94;5072734;28;20036;-89
2021/08/01 01:50:18;;;;;;;26.08;11.57;;;;;;;23.99;61.06;98039.63;5072704;28;20296;-89
2021/08/01 01:52:48;;;;;;;23.77;11.68;;;;;;;23.89;60.98;98006.19;5073545;28;20044;-88
2021/08/01 01:55:17;;;;;;;23.70;12.10;;;;;;;24.03;60.66;98030.19;5072885;28;20401;-89
2021/08/01 01:57:42;;;;;;;;;;;;;;;24.03;60.72;98032.91;5074692;28;20519;-89
2021/08/01 02:00:09;;;;;;;23.52;12.63;;;;;;;23.99;60.19;98040.50;5071530;28;20015;-91
2021/08/01 02:02:36;;;;;;;22.33;11.30;;;;;;;23.99;60.25;98043.19;5074154;28;20041;-89
2021/08/01 02:05:04;;;;;;;28.40;11.88;;;;;;;24.03;60.10;98054.66;5073808;28;20048;-90
2021/08/01 02:07:30;;;;;;;26.20;11.87;;;;;;;24.09;60.19;98074.91;5073855;28;20115;-91
2021/08/01 02:10:02;;;;;;;20.95;11.73;;;;;;;24.07;59.75;98050.66;5071959;28;20033;-90
2021/08/01 02:12:35;;;;;;;23.85;11.40;;;;;;;24.03;59.50;98024.78;5072143;28;20063;-91
2021/08/01 02:15:06;;;;;;;21.30;11.30;;;;;;;24.06;59.73;98032.63;5068635;28;20067;-91
2021/08/01 02:17:38;;;;;;;23.73;11.25;;;;;;;24.05;60.01;98036.34;5072081;28;20093;-90
2021/08/01 02:20:07;;;;;;;26.23;11.30;;;;;;;23.92;60.21;98005.88;5071515;28;20441;-90
2021/08/01 02:22:34;;;;;;;24.85;12.30;;;;;;;23.69;60.54;98008.88;5071726;28;20067;-91
2021/08/01 02:25:01;;;;;;;22.55;11.38;;;;;;;23.60;60.85;98025.19;5072066;28;20044;-90
2021/08/01 02:27:31;;;;;;;21.63;11.77;;;;;;;23.58;61.92;98037.03;5071998;28;20428;-90
2021/08/01 02:30:00;;;;;;;22.27;11.43;;;;;;;23.58;61.83;98061.44;5068015;28;20127;-91
2021/08/01 02:32:25;;;;;;;;;;;;;;;23.76;61.82;98066.22;5071721;28;20043;-91
2021/08/01 02:34:52;;;;;;;24.02;11.52;;;;;;;23.84;61.14;98060.94;5072033;28;20370;-89
2021/08/01 02:37:18;;;;;;;19.67;11.48;;;;;;;23.89;60.73;98055.06;5073551;28;20036;-90
2021/08/01 02:39:45;;;;;;;22.58;10.88;;;;;;;24.03;60.21;98057.34;5073358;28;20044;-91
2021/08/01 02:42:13;;;;;;;19.33;11.48;;;;;;;23.99;59.36;98024.19;5073191;28;20086;-92
2021/08/01 02:44:42;;;;;;;27.80;11.75;;;;;;;24.26;59.37;98049.75;5071355;28;20052;-90
2021/08/01 02:47:09;;;;;;;24.70;11.00;;;;;;;24.34;59.27;98032.72;5066736;28;20122;-91
2021/08/01 02:49:38;;;;;;;25.20;11.80;;;;;;;24.36;58.93;98034.28;5073022;28;20086;-91
2021/08/01 02:52:07;;;;;;;19.58;10.80;;;;;;;24.35;58.81;98032.59;5073406;28;20068;-90
2021/08/01 02:54:35;;;;;;;24.95;12.38;;;;;;;24.42;59.10;98034.69;5073685;28;20016;-91
2021/08/01 02:57:05;;;;;;;23.58;10.82;;;;;;;24.32;58.88;98011.13;5069530;28;20041;-92
2021/08/01 02:59:33;;;;;;;20.45;11.55;;;;;;;24.37;58.89;98027.81;5070478;28;20036;-91
2021/08/01 03:02:01;;;;;;;26.30;12.07;;;;;;;24.37;58.74;98013.38;5068813;28;20036;-91
2021/08/01 03:04:27;;;;;;;23.10;11.03;;;;;;;24.44;58.42;98038.13;5071806;28;20279;-89
2021/08/01 03:06:53;;;;;;;22.38;11.15;;;;;;;24.55;58.20;98027.97;5071660;28;20068;-90
2021/08/01 03:09:19;;;;;;;24.80;11.48;;;;;;;24.53;58.34;98010.09;5071926;28;20060;-89
2021/08/01 03:11:45;;;;;;;23.40;11.65;;;;;;;24.59;58.22;98020.34;5071880;28;20086;-90
2021/08/01 03:14:12;;;;;;;21.35;11.32;;;;;;;24.64;57.49;98007.19;5071884;28;20040;-90
2021/08/01 03:16:38;;;;;;;23.02;11.27;;;;;;;24.72;57.39;98007.31;5069245;28;20072;-90
2021/08/01 03:19:05;;;;;;;20.02;11.18;;;;;;;24.74;57.72;98007.16;5073378;28;20654;-89
2021/08/01 03:21:31;;;;;;;21.83;10.43;;;;;;;24.62;57.56;97986.59;5072836;28;20040;-90
2021/08/01 03:23:57;;;;;;;22.65;10.52;;;;;;;24.71;57.67;97992.00;5075227;28;20048;-89
2021/08/01 03:26:23;;;;;;;23.77;10.48;;;;;;;24.72;57.49;97981.97;5076725;28;20044;-89
2021/08/01 03:28:49;;;;;;;22.65;10.60;;;;;;;24.84;57.55;97996.25;5078318;28;20090;-89
2021/08/01 03:31:15;;;;;;;21.15;10.68;;;;;;;24.83;57.92;97987.22;5074759;28;20094;-89
2021/08/01 03:33:40;;;;;;;23.33;11.13;;;;;;;24.84;57.55;97990.78;5075330;28;20067;-89
2021/08/01 03:36:08;;;;;;;22.23;10.82;;;;;;;24.79;57.88;97997.53;5075019;28;20041;-89
2021/08/01 03:38:33;;;;;;;23.35;11.45;;;;;;;24.73;58.32;98003.56;5075065;28;20456;-89
2021/08/01 03:40:59;;;;;;;22.17;11.45;;;;;;;24.67;58.42;97979.69;5074996;28;20078;-90
2021/08/01 03:43:25;;;;;;;23.77;11.20;;;;;;;24.76;58.45;97984.22;5074767;28;20072;-89
2021/08/01 03:45:51;;;;;;;24.65;11.27;;;;;;;24.77;58.60;97980.53;5074279;28;20523;-90
2021/08/01 03:48:16;;;;;;;22.75;11.35;;;;;;;24.79;58.29;97966.78;5076514;28;20028;-89
2021/08/01 03:50:42;;;;;;;25.50;11.57;;;;;;;24.73;58.82;97970.94;5074995;28;20037;-89
2021/08/01 03:53:09;;;;;;;23.02;11.07;;;;;;;24.79;58.72;97983.94;5074701;28;20032;-89
2021/08/01 03:55:35;;;;;;;24.98;11.38;;;;;;;24.89;58.79;97985.75;5076401;28;20090;-89
2021/08/01 03:58:01;;;;;;;23.35;11.02;;;;;;;25.03;59.13;97977.09;5076729;28;20048;-89
2021/08/01 04:00:26;;;;;;;20.60;11.18;;;;;;;24.95;58.80;97969.69;5073505;28;20379;-90
2021/08/01 04:02:52;;;;;;;22.50;11.32;;;;;;;24.86;58.94;97962.44;5074992;28;20042;-89
2021/08/01 04:05:18;;;;;;;22.83;11.35;;;;;;;24.77;59.96;97971.50;5074505;28;20067;-89
2021/08/01 04:07:44;;;;;;;19.48;10.88;;;;;;;24.74;60.97;97972.66;5074456;28;20040;-90
2021/08/01 04:10:11;;;;;;;24.35;11.43;;;;;;;24.82;63.22;97981.94;5075216;28;20036;-90
2021/08/01 04:12:37;;;;;;;23.88;12.02;;;;;;;24.83;64.46;97978.19;5076435;28;20043;-90
2021/08/01 04:15:04;;;;;;;22.98;11.93;;;;;;;24.86;64.29;97956.16;5073597;28;20033;-90
2021/08/01 04:17:31;;;;;;;29.27;12.43;;;;;;;24.92;64.52;97926.47;5075369;28;20033;-90
2021/08/01 04:19:57;;;;;;;33.25;14.05;;;;;;;24.88;67.23;97926.94;5074471;28;20628;-92
2021/08/01 04:22:25;;;;;;;30.92;13.90;;;;;;;24.82;69.97;97903.94;5074348;28;20045;-92
2021/08/01 04:24:51;;;;;;;27.67;13.70;;;;;;;24.75;70.66;97900.13;5073386;28;20539;-91
2021/08/01 04:27:18;;;;;;;25.30;13.23;;;;;;;24.55;70.72;97910.25;5076361;28;20036;-90
2021/08/01 04:29:44;;;;;;;32.70;14.32;;;;;;;24.54;72.37;97924.81;5076090;28;20508;-90
2021/08/01 04:32:09;;;;;;;32.38;13.68;;;;;;;24.44;71.39;97889.53;5071773;28;20140;-90
2021/08/01 04:34:35;;;;;;;25.27;13.82;;;;;;;24.36;71.81;97883.97;5073712;28;20067;-89
2021/08/01 04:37:01;;;;;;;25.05;12.90;;;;;;;24.48;71.50;97901.81;5075146;28;20064;-89
2021/08/01 04:39:27;;;;;;;26.58;14.27;;;;;;;24.41;71.88;97906.13;5073805;28;20468;-89
2021/08/01 04:41:53;;;;;;;29.10;15.00;;;;;;;24.36;71.04;97903.84;5073854;28;20128;-90
2021/08/01 04:44:20;;;;;;;33.13;14.20;;;;;;;24.51;71.38;97930.56;5074016;28;20052;-91
2021/08/01 04:46:46;;;;;;;31.05;14.45;;;;;;;24.40;71.78;97913.41;5070480;28;20086;-91
2021/08/01 04:49:12;;;;;;;28.45;14.43;;;;;;;24.53;71.25;97912.25;5076386;28;20056;-90
2021/08/01 04:51:37;;;;;;;22.77;14.02;;;;;;;24.75;71.81;97916.44;5075610;28;20047;-90
2021/08/01 04:54:03;;;;;;;27.55;13.93;;;;;;;24.66;71.37;97871.09;5075397;28;20037;-90
2021/08/01 04:56:29;;;;;;;29.48;13.63;;;;;;;24.74;70.40;97891.06;5075482;28;20094;-91
2021/08/01 04:58:55;;;;;;;26.73;14.38;;;;;;;24.83;70.28;97893.91;5075663;28;20037;-89
2021/08/01 05:01:22;;;;;;;26.50;12.70;;;;;;;24.98;70.23;97876.03;5071247;28;20090;-89
2021/08/01 05:03:47;;;;;;;22.70;13.35;;;;;;;25.12;69.97;97900.00;5073498;28;20043;-90
2021/08/01 05:06:13;;;;;;;28.88;13.95;;;;;;;25.02;69.41;97889.16;5074973;28;20045;-90
2021/08/01 05:08:39;;;;;;;27.50;13.77;;;;;;;25.20;69.01;97913.72;5074124;28;20028;-88
2021/08/01 05:11:05;;;;;;;24.27;13.43;;;;;;;25.21;69.49;97899.09;5074137;28;20047;-89
2021/08/01 05:13:31;;;;;;;27.05;13.55;;;;;;;25.12;69.39;97897.28;5073901;28;20036;-90
2021/08/01 05:15:57;;;;;;;24.90;12.70;;;;;;;25.21;68.44;97874.59;5071727;28;20048;-89
2021/08/01 05:18:24;;;;;;;24.52;12.73;;;;;;;25.17;68.10;97875.03;5076017;28;20044;-90
2021/08/01 05:20:50;;;;;;;26.38;13.23;;;;;;;25.14;67.89;97917.03;5075714;28;20894;-89
2021/08/01 05:23:16;;;;;;;33.03;15.35;;;;;;;25.05;67.67;97953.31;5076562;28;20064;-92
2021/08/01 05:25:42;;;;;;;29.20;12.70;;;;;;;25.17;67.71;97975.72;5073807;28;20418;-90
2021/08/01 05:28:07;;;;;;;25.63;13.20;;;;;;;25.20;67.01;97959.13;5074499;28;20045;-93
2021/08/01 05:30:33;;;;;;;20.17;12.73;;;;;;;25.20;66.60;97950.97;5071357;28;20046;-91
2021/08/01 05:33:04;;;;;;;24.77;12.38;;;;;;;25.21;66.18;97977.16;5074533;28;20063;-90
2021/08/01 05:35:31;;;;;;;29.30;13.75;;;;;;;25.19;66.21;97999.06;5073924;28;20132;-91
2021/08/01 05:37:56;;;;;;;28.70;12.60;;;;;;;25.16;66.54;98028.44;5071123;28;20036;-91
2021/08/01 05:40:22;;;;;;;25.77;12.93;;;;;;;25.08;67.66;98040.06;5074154;28;20040;-91
2021/08/01 05:42:48;;;;;;;29.75;14.25;;;;;;;24.91;68.51;98046.28;5073157;28;20043;-91
2021/08/01 05:45:14;;;;;;;29.30;13.68;;;;;;;24.66;70.54;98083.16;5070939;28;20047;-92
2021/08/01 05:47:40;;;;;;;28.42;14.55;;;;;;;24.37;72.43;98074.03;5074847;28;20040;-92
2021/08/01 05:50:08;;;;;;;30.88;15.60;;;;;;;24.14;74.80;98061.78;5076480;28;20128;-92
2021/08/01 05:52:35;;;;;;;;;;;;;;;23.95;75.69;97963.03;5076478;28;20047;-92
2021/08/01 05:55:01;;;;;;;33.47;15.30;;;;;;;23.67;76.74;97967.44;5073647;28;19924;-89
2021/08/01 05:57:27;;;;;;;26.50;14.75;;;;;;;23.63;77.27;97966.03;5073524;28;20542;-91
2021/08/01 05:59:53;;;;;;;30.73;15.23;;;;;;;23.50;76.87;97933.75;5071872;28;20039;-91
2021/08/01 06:02:19;;;;;;;28.20;12.50;;;;;;;23.52;76.11;97969.75;5073194;28;20063;-91
2021/08/01 06:04:45;;;;;;;23.38;11.20;;;;;;;23.43;74.54;97942.63;5073301;28;20048;-90
2021/08/01 06:07:11;;;;;;;20.67;10.50;;;;;;;23.52;75.63;97953.44;5073548;28;20382;-91
2021/08/01 06:09:40;;;;;;;23.33;11.25;;;;;;;23.65;74.58;97963.19;5072993;28;20040;-91
2021/08/01 06:12:10;;;;;;;22.15;10.05;;;;;;;23.71;74.06;97960.72;5070772;28;20063;-89
2021/08/01 06:14:36;;;;;;;18.42;8.98;;;;;;;23.87;73.46;97960.16;5072056;28;20135;-89
2021/08/01 06:17:02;;;;;;;16.33;9.00;;;;;;;24.01;72.80;97958.00;5072527;28;20286;-89
2021/08/01 06:19:28;;;;;;;22.75;9.40;;;;;;;23.95;70.94;97925.00;5074637;28;20041;-88
2021/08/01 06:21:54;;;;;;;13.60;7.53;;;;;;;24.31;69.69;97910.72;5073406;28;20055;-90
2021/08/01 06:24:20;;;;;;;18.15;7.97;;;;;;;24.31;70.90;97899.84;5072754;28;20036;-90
2021/08/01 06:26:47;;;;;;;15.15;7.80;;;;;;;24.34;70.43;97884.13;5072807;28;20037;-90
2021/08/01 06:29:13;;;;;;;17.50;7.63;;;;;;;24.24;69.99;97860.72;5072833;28;20041;-88
2021/08/01 06:31:39;;;;;;;13.98;7.85;;;;;;;24.28;71.74;97883.88;5072350;28;20040;-90
2021/08/01 06:34:05;;;;;;;19.13;8.38;;;;;;;24.17;72.24;97882.19;5074843;28;20060;-91
2021/08/01 06:36:30;;;;;;;16.67;8.70;;;;;;;24.24;71.85;97910.47;5074863;28;20044;-91
2021/08/01 06:38:56;;;;;;;20.83;10.20;;;;;;;24.15;72.43;97933.09;5072866;28;20471;-92
2021/08/01 06:41:22;;;;;;;22.20;8.90;;;;;;;24.44;72.05;97940.28;5072919;28;20105;-92
2021/08/01 06:43:49;;;;;;;16.80;9.55;;;;;;;24.63;72.07;97926.63;5072298;28;20044;-89
2021/08/01 06:46:15;;;;;;;17.38;9.60;;;;;;;24.55;72.72;97921.97;5073108;28;20044;-93
2021/08/01 06:48:41;;;;;;;25.20;10.55;;;;;;;24.65;73.57;97923.78;5074824;28;20044;-91
2021/08/01 06:51:07;;;;;;;18.52;10.50;;;;;;;25.06;72.25;97903.31;5074927;28;20086;-91
2021/08/01 06:53:33;;;;;;;21.50;9.43;;;;;;;25.49;69.21;97917.22;5073270;28;20036;-92
2021/08/01 06:55:59;;;;;;;17.30;9.55;;;;;;;25.73;68.32;97913.84;5074201;28;20048;-91
2021/08/01 06:58:25;;;;;;;18.63;9.50;;;;;;;26.04;66.93;97916.97;5074472;28;20278;-91
2021/08/01 07:00:58;;;;;;;17.65;9.73;;;;;;;26.64;65.87;97921.59;5071820;28;20089;-93
2021/08/01 07:03:26;;;;;;;15.20;9.15;;;;;;;26.23;64.72;97922.19;5074269;28;20041;-91
2021/08/01 07:05:52;;;;;;;23.25;9.88;;;;;;;25.72;65.76;97923.00;5074023;28;20543;-92
2021/08/01 07:08:20;;;;;;;20.13;10.07;;;;;;;25.47;67.75;97936.41;5071895;28;20037;-91
2021/08/01 07:10:45;;;;;;;23.13;10.05;;;;;;;25.24;68.13;97933.28;5071178;28;20044;-91
2021/08/01 07:13:11;;;;;;;24.48;10.15;;;;;;;25.25;68.24;97934.16;5072112;28;20037;-92
2021/08/01 07:15:38;;;;;;;18.73;10.07;;;;;;;25.03;68.76;97911.81;5071401;28;20035;-91
2021/08/01 07:18:06;;;;;;;21.10;10.25;;;;;;;25.50;67.56;97925.19;5072575;28;20050;-90
2021/08/01 07:20:33;;;;;;;19.83;9.70;;;;;;;25.75;65.81;97936.31;5073994;28;20072;-91
2021/08/01 07:22:59;;;;;;;22.95;9.45;;;;;;;26.00;64.83;97921.03;5074044;28;20040;-92
2021/08/01 07:25:26;;;;;;;21.33;10.07;;;;;;;26.20;63.64;97922.53;5069596;28;20376;-91
2021/08/01 07:27:53;;;;;;;21.33;9.68;;;;;;;26.57;62.10;97913.22;5071337;28;20055;-92
2021/08/01 07:30:20;;;;;;;18.50;10.02;;;;;;;26.90;61.21;97934.31;5071530;28;20052;-91
2021/08/01 07:32:46;;;;;;;17.88;9.77;;;;;;;26.92;60.57;97929.53;5073821;28;20036;-89
2021/08/01 07:35:13;;;;;;;15.93;9.57;;;;;;;27.05;59.68;97928.03;5073961;28;20551;-91
2021/08/01 07:37:39;;;;;;;18.33;8.75;;;;;;;27.18;58.52;97913.91;5071769;28;20050;-89
2021/08/01 07:40:06;;;;;;;22.50;9.30;;;;;;;26.99;57.69;97911.47;5071558;28;20090;-92
2021/08/01 07:42:32;;;;;;;18.83;9.38;;;;;;;27.35;57.47;97931.22;5071868;28;20350;-92
2021/08/01 07:48:00;;;;;;;16.13;8.90;;;;;;;27.63;54.74;97922.69;5092366;27;20882;-90
2021/08/01 07:50:25;;;;;;;23.43;9.10;;;;;;;27.34;55.71;97912.25;5091818;28;20036;-92
2021/08/01 07:52:51;;;;;;;16.27;8.55;;;;;;;27.50;55.20;97906.81;5090406;28;20123;-92
2021/08/01 07:55:18;;;;;;;19.98;7.68;;;;;;;28.09;53.97;97930.38;5090404;28;20089;-94
2021/08/01 07:57:44;;;;;;;15.20;7.50;;;;;;;28.06;53.08;97937.91;5090181;28;20036;-91
2021/08/01 08:00:12;;;;;;;15.63;8.77;;;;;;;27.29;54.98;97944.69;5091126;28;20051;-91
2021/08/01 08:02:38;;;;;;;19.00;8.45;;;;;;;27.57;53.70;97937.03;5091724;28;20106;-93
2021/08/01 08:05:06;;;;;;;14.50;7.55;;;;;;;27.92;52.08;97938.59;5092192;28;20024;-93
2021/08/01 08:07:32;;;;;;;17.90;8.15;;;;;;;28.36;51.72;97943.63;5092555;28;20047;-92
2021/08/01 08:09:58;;;;;;;18.02;8.32;;;;;;;28.08;52.06;97950.53;5092200;28;20101;-92
2021/08/01 08:12:24;;;;;;;16.67;7.55;;;;;;;28.24;51.35;97980.59;5091359;28;20124;-91
2021/08/01 08:14:52;;;;;;;17.50;7.30;;;;;;;28.57;50.93;97961.41;5092592;28;20040;-94
2021/08/01 08:17:18;;;;;;;14.27;7.28;;;;;;;28.30;50.67;97954.41;5094804;28;20048;-93
2021/08/01 08:19:44;;;;;;;15.50;6.93;;;;;;;28.52;49.65;97937.31;5093523;28;20116;-92
2021/08/01 08:22:12;;;;;;;15.50;6.60;;;;;;;28.75;48.08;97952.94;5091720;28;20047;-92
2021/08/01 08:24:40;;;;;;;13.00;7.00;;;;;;;28.95;47.43;97942.41;5076497;28;20069;-95
2021/08/01 08:27:09;;;;;;;;;;;;;;;28.95;46.93;97978.00;5077547;28;20048;-95
2021/08/01 08:29:35;;;;;;;17.77;6.57;;;;;;;29.06;47.83;97962.06;5077116;28;20007;-94
2021/08/01 08:32:06;;;;;;;15.32;6.80;;;;;;;28.68;47.71;97955.53;5095323;28;20051;-95
2021/08/01 08:34:32;;;;;;;18.60;7.38;;;;;;;28.97;47.33;97952.16;5095814;28;20048;-93
2021/08/01 08:37:00;;;;;;;16.13;7.68;;;;;;;28.55;48.61;97947.88;5087395;28;20048;-95
2021/08/01 08:39:29;;;;;;;15.25;6.95;;;;;;;29.22;47.73;97947.44;5097886;28;20051;-96
2021/08/01 08:41:58;;;;;;;12.70;6.28;;;;;;;29.55;45.83;97951.84;5097365;28;20121;-95
2021/08/01 08:44:24;;;;;;;15.93;6.75;;;;;;;29.86;46.05;97966.38;5097211;28;20036;-96
2021/08/01 08:46:53;;;;;;;13.55;6.22;;;;;;;29.80;44.99;97977.22;5096007;28;20131;-95
2021/08/01 08:49:21;;;;;;;13.82;6.60;;;;;;;29.17;45.45;97944.41;5096279;28;20048;-96
2021/08/01 08:51:49;;;;;;;;;;;;;;;29.34;46.44;97967.03;5098089;28;20049;-96
2021/08/01 08:54:24;;;;;;;12.10;6.35;;;;;;;29.57;45.35;97950.63;5098116;28;19916;-96
2021/08/01 08:56:54;;;;;;;12.90;6.22;;;;;;;30.06;42.78;97969.47;5097898;28;20103;-93
2021/08/01 08:59:22;;;;;;;10.40;5.82;;;;;;;29.90;43.56;97964.94;5081443;28;20040;-94
2021/08/01 09:01:48;;;;;;;11.10;5.65;;;;;;;29.79;44.13;97956.31;5081939;28;20040;-96
2021/08/01 09:04:15;;;;;;;14.27;6.10;;;;;;;30.14;43.40;97973.16;5082554;28;20048;-95
2021/08/01 09:06:42;;;;;;;14.75;6.65;;;;;;;29.65;42.97;97945.09;5085051;28;20048;-94
2021/08/01 09:09:13;;;;;;;13.60;6.38;;;;;;;29.82;43.08;97934.91;5086319;28;20045;-96
2021/08/01 09:11:40;;;;;;;14.15;6.25;;;;;;;29.82;43.43;97923.06;5085043;28;20036;-96
2021/08/01 09:14:18;;;;;;;13.88;5.70;;;;;;;30.39;42.86;97910.72;5085738;28;20097;-95
2021/08/01 09:16:48;;;;;;;11.63;6.57;;;;;;;30.41;42.35;97930.59;5087016;28;20040;-95
2021/08/01 09:19:34;;;;;;;16.45;6.32;;;;;;;30.47;41.91;97919.72;5086093;28;20516;-96
2021/08/01 09:22:16;;;;;;;10.70;5.80;;;;;;;31.15;41.18;97926.94;5087469;28;20080;-95
2021/08/01 09:24:47;;;;;;;11.38;6.03;;;;;;;31.18;40.57;97919.16;5085007;28;20124;-94
2021/08/01 09:27:33;;;;;;;13.35;5.90;;;;;;;31.35;39.30;97921.66;5083650;28;20040;-93
2021/08/01 09:30:05;;;;;;;14.75;7.05;;;;;;;31.00;40.32;97943.44;5063326;28;20045;-95
2021/08/01 09:32:46;;;;;;;17.75;6.47;;;;;;;31.35;39.09;97929.91;5067758;28;20036;-94
2021/08/01 09:35:16;;;;;;;14.20;6.15;;;;;;;31.04;39.92;97928.28;5084072;28;20050;-96
2021/08/01 09:38:03;;;;;;;15.43;6.43;;;;;;;31.38;38.95;97933.13;5084271;28;20033;-95
2021/08/01 09:40:34;;;;;;;19.67;6.82;;;;;;;31.15;39.31;97948.91;5082425;28;20037;-96
2021/08/01 09:43:10;;;;;;;14.85;6.18;;;;;;;31.23;38.47;97954.28;5081875;28;20044;-95
2021/08/01 09:45:41;;;;;;;14.27;6.28;;;;;;;31.80;37.08;97972.69;5082134;28;20048;-94
2021/08/01 09:48:20;;;;;;;10.70;6.57;;;;;;;32.06;37.56;97950.13;5083359;28;20032;-94
2021/08/01 09:51:04;;;;;;;15.00;6.68;;;;;;;32.26;37.13;97946.66;5084814;28;20045;-96
2021/08/01 09:53:39;;;;;;;15.15;6.75;;;;;;;30.69;39.37;97948.09;5083822;28;20036;-94
2021/08/01 09:56:13;;;;;;;14.63;6.68;;;;;;;30.21;40.72;97985.06;5082702;28;20040;-96
2021/08/01 09:58:42;;;;;;;13.88;5.97;;;;;;;30.39;40.41;97960.09;5083606;28;20079;-95
2021/08/01 10:01:13;;;;;;;14.93;6.47;;;;;;;30.61;39.67;97994.81;5082190;28;20132;-95
2021/08/01 10:03:46;;;;;;;13.20;6.75;;;;;;;30.81;39.46;97959.44;5083494;28;20083;-95
2021/08/01 10:06:23;;;;;;;16.58;6.60;;;;;;;31.03;38.02;97974.09;5083948;28;20033;-96
2021/08/01 10:08:58;;;;;;;11.77;5.47;;;;;;;31.71;37.13;97971.97;5084184;28;20049;-96
2021/08/01 10:11:32;;;;;;;13.40;6.10;;;;;;;30.80;38.33;97979.69;5084560;28;20036;-95
2021/08/01 10:14:04;;;;;;;11.88;5.97;;;;;;;30.81;38.63;97969.56;5087027;28;20068;-94
2021/08/01 10:16:34;;;;;;;16.38;6.25;;;;;;;31.44;37.88;97994.72;5083197;28;20104;-95
2021/08/01 10:19:21;;;;;;;15.95;6.15;;;;;;;31.32;37.62;97981.44;5085006;28;20048;-93
2021/08/01 10:21:49;;;;;;;14.65;6.18;;;;;;;30.94;38.30;97950.53;5016359;28;20049;-94
2021/08/01 10:24:19;;;;;;;15.10;6.15;;;;;;;31.17;37.82;97950.41;5022356;28;20050;-94
2021/08/01 10:30:20;;;;;;;18.52;6.15;;;;;;;30.68;37.28;97968.31;5002316;28;20050;-94
2021/08/01 10:32:54;;;;;;;16.20;6.00;;;;;;;31.13;37.94;97954.59;5003237;28;20046;-94
2021/08/01 10:35:22;;;;;;;12.93;5.50;;;;;;;31.92;36.54;97956.50;5019573;28;20046;-93
2021/08/01 10:37:57;;;;;;;13.88;6.28;;;;;;;31.98;36.56;97935.66;5020342;28;20065;-95
2021/08/01 10:40:25;;;;;;;16.13;7.03;;;;;;;32.32;36.10;97940.38;5021524;28;20045;-94
2021/08/01 10:43:05;;;;;;;;;;;;;;;;;;;;;
2021/08/01 10:45:40;;;;;;;12.85;6.07;;;;;;;31.94;35.48;97937.91;5021901;28;20053;-96
2021/08/01 10:51:36;;;;;;;10.93;5.82;;;;;;;32.07;35.48;97935.28;5015912;28;20046;-95
2021/08/01 10:54:34;;;;;;;15.02;6.10;;;;;;;32.62;33.99;97963.03;5023115;28;20046;-96
2021/08/01 10:57:20;;;;;;;18.17;5.38;;;;;;;32.05;35.56;97947.56;5002692;28;20453;-96
2021/08/01 11:00:10;;;;;;;16.30;5.93;;;;;;;31.41;36.59;97951.97;5069723;28;20094;-96
2021/08/01 11:02:37;;;;;;;11.48;5.95;;;;;;;31.27;36.99;97967.44;5085804;28;20063;-94
2021/08/01 11:05:35;;;;;;;15.75;6.03;;;;;;;31.73;36.48;97986.38;5065403;28;20028;-95
2021/08/01 11:08:08;;;;;;;14.00;5.82;;;;;;;32.08;36.31;97959.00;5069211;28;20044;-94
2021/08/01 11:10:35;;;;;;;11.70;5.60;;;;;;;32.37;35.31;97948.84;5087826;28;20083;-95
2021/08/01 11:13:21;;;;;;;10.80;6.40;;;;;;;32.28;34.86;97947.31;5086010;28;20563;-96
2021/08/01 11:15:50;;;;;;;11.98;6.22;;;;;;;32.05;35.06;97953.91;5084095;28;20044;-94
2021/08/01 11:18:32;;;;;;;12.55;5.15;;;;;;;32.23;33.95;97945.16;5082848;28;20045;-95
2021/08/01 11:21:04;;;;;;;16.48;5.95;;;;;;;32.30;34.91;97956.22;5082027;28;20041;-95
2021/08/01 11:24:06;;;;;;;14.82;5.22;;;;;;;32.47;33.69;97949.38;5081979;28;20036;-95
2021/08/01 11:26:35;;;;;;;11.00;5.18;;;;;;;31.90;35.72;97944.84;5080335;28;20037;-94
2021/08/01 11:29:15;;;;;;;13.07;5.50;;;;;;;32.28;33.99;97947.31;5082927;28;20050;-95
2021/08/01 11:32:08;;;;;;;13.30;5.15;;;;;;;32.12;33.79;97934.72;5083536;28;20059;-96
2021/08/01 11:34:34;;;;;;;11.23;4.78;;;;;;;32.22;32.93;97915.09;5083943;28;20052;-96
2021/08/01 11:37:22;;;;;;;7.43;4.85;;;;;;;32.37;32.88;97926.00;5086505;28;20093;-96
2021/08/01 11:39:56;;;;;;;11.38;4.85;;;;;;;32.60;32.90;97936.78;5086103;28;20073;-95
2021/08/01 11:46:13;;;;;;;11.07;4.97;;;;;;;32.78;33.13;97927.97;5098351;27;20397;-96